Time;durP1;ratioP1;P1;durP2;ratioP2;P2;SDS_P1;SDS_P2;PMS_P1;PMS_P2;Temp;Humidity;BMP_temperature;BMP_pressure;BME280_temperature;BME280_humidity;BME280_pressure;Samples;Min_cycle;Max_cycle;Signal;HPM_P1;HPM_P2
2020/12/25 00:02:18;;;;;;;2.80;2.70;;;5.20;99.90;;;;;;10290857;28;20246;-83
2020/12/25 00:07:20;;;;;;;2.60;2.50;;;5.20;99.90;;;;;;10279663;28;20655;-85
2020/12/25 00:12:22;;;;;;;2.70;2.60;;;5.20;99.90;;;;;;10273372;28;20228;-84
2020/12/25 00:17:24;;;;;;;2.80;2.70;;;5.20;99.90;;;;;;10268851;28;20220;-83
2020/12/25 00:22:26;;;;;;;2.70;2.60;;;5.20;99.90;;;;;;10267847;28;20299;-85
2020/12/25 00:27:28;;;;;;;2.73;2.63;;;5.30;99.90;;;;;;10284386;28;20271;-85
2020/12/25 00:32:31;;;;;;;2.70;2.60;;;5.30;99.90;;;;;;10300961;28;20196;-84
2020/12/25 00:37:33;;;;;;;2.60;2.50;;;5.40;99.90;;;;;;10264508;28;20251;-85
2020/12/25 00:42:35;;;;;;;2.70;2.60;;;5.30;99.90;;;;;;10277330;28;20224;-85
2020/12/25 00:47:36;;;;;;;2.70;2.60;;;5.30;99.90;;;;;;10284385;28;20211;-85
2020/12/25 00:52:39;;;;;;;2.40;2.30;;;5.30;99.90;;;;;;10287884;28;20196;-84
2020/12/25 00:57:41;;;;;;;2.50;2.40;;;5.30;99.90;;;;;;10268545;28;20219;-85
2020/12/25 01:02:48;;;;;;;2.80;2.70;;;5.30;99.90;;;;;;10266758;28;20254;-83
2020/12/25 01:07:50;;;;;;;3.20;3.10;;;5.30;99.90;;;;;;10282732;28;20841;-85
2020/12/25 01:12:52;;;;;;;3.20;3.10;;;5.30;99.90;;;;;;10285514;28;20192;-83
2020/12/25 01:17:54;;;;;;;3.20;3.10;;;5.30;99.90;;;;;;10296548;28;20230;-84
2020/12/25 01:22:56;;;;;;;3.20;3.10;;;5.30;99.90;;;;;;10261704;28;20230;-85
2020/12/25 01:27:58;;;;;;;3.27;3.17;;;5.30;99.90;;;;;;10281194;28;20567;-85
2020/12/25 01:32:59;;;;;;;3.80;3.60;;;5.40;99.90;;;;;;10278371;28;20219;-84
2020/12/25 01:38:02;;;;;;;3.53;3.33;;;5.40;99.90;;;;;;10281062;28;20680;-84
2020/12/25 01:43:04;;;;;;;3.57;3.43;;;5.40;99.90;;;;;;10267083;28;20254;-85
2020/12/25 01:48:06;;;;;;;3.57;3.40;;;5.40;99.90;;;;;;10267124;28;20314;-85
2020/12/25 01:53:10;;;;;;;4.27;4.07;;;5.50;99.90;;;;;;10300648;28;20664;-83
2020/12/25 01:58:14;;;;;;;4.40;4.20;;;5.50;99.90;;;;;;10300511;28;20239;-84
2020/12/25 02:03:16;;;;;;;4.83;4.57;;;5.60;99.90;;;;;;10264591;28;20278;-85
2020/12/25 02:08:18;;;;;;;6.00;5.60;;;5.60;99.90;;;;;;10285507;28;20223;-84
2020/12/25 02:13:21;;;;;;;5.70;5.40;;;5.60;99.90;;;;;;10284180;28;20203;-85
2020/12/25 02:18:23;;;;;;;5.80;5.40;;;5.60;99.90;;;;;;10270910;28;20224;-85
2020/12/25 02:23:25;;;;;;;5.63;5.33;;;5.60;99.90;;;;;;10273556;28;20243;-84
2020/12/25 02:28:27;;;;;;;5.87;5.40;;;5.60;99.90;;;;;;10266148;28;20231;-85
2020/12/25 02:33:28;;;;;;;6.50;6.00;;;5.60;99.90;;;;;;10264162;28;20302;-85
2020/12/25 02:38:31;;;;;;;6.40;5.90;;;5.60;99.90;;;;;;10262501;28;20219;-82
2020/12/25 02:43:33;;;;;;;6.73;6.23;;;5.60;99.90;;;;;;10278161;28;20770;-83
2020/12/25 02:48:34;;;;;;;7.30;6.70;;;5.60;99.90;;;;;;10282750;28;20220;-85
2020/12/25 02:53:37;;;;;;;7.93;7.30;;;5.70;99.90;;;;;;10263870;28;20243;-85
2020/12/25 02:58:38;;;;;;;7.03;6.43;;;5.70;99.90;;;;;;10267829;28;20220;-84
2020/12/25 03:03:41;;;;;;;6.00;5.60;;;5.80;99.90;;;;;;10301655;28;20219;-85
2020/12/25 03:08:43;;;;;;;6.40;5.97;;;5.80;99.90;;;;;;10270274;28;20219;-85
2020/12/25 03:13:45;;;;;;;6.70;6.20;;;5.80;99.90;;;;;;10266758;28;20204;-84
2020/12/25 03:18:46;;;;;;;6.87;6.33;;;5.70;99.90;;;;;;10284170;28;20223;-83
2020/12/25 03:23:49;;;;;;;6.80;6.33;;;5.80;99.90;;;;;;10267157;28;20274;-85
2020/12/25 03:28:50;;;;;;;6.73;6.23;;;5.80;99.90;;;;;;10306785;28;20731;-85
2020/12/25 03:33:52;;;;;;;6.77;6.17;;;5.80;99.90;;;;;;10280995;28;20279;-84
2020/12/25 03:38:55;;;;;;;7.73;7.10;;;5.90;99.90;;;;;;10270595;28;20247;-83
2020/12/25 03:43:56;;;;;;;6.00;5.60;;;5.80;99.90;;;;;;10268746;28;20829;-85
2020/12/25 03:48:58;;;;;;;7.00;6.50;;;5.90;99.90;;;;;;10273249;28;20227;-84
2020/12/25 03:54:00;;;;;;;6.80;6.33;;;5.90;99.90;;;;;;10274352;28;20227;-84
2020/12/25 03:59:02;;;;;;;6.87;6.37;;;6.00;99.90;;;;;;10271017;28;20684;-85
2020/12/25 04:04:03;;;;;;;6.60;6.10;;;6.00;99.90;;;;;;10280169;28;20215;-84
2020/12/25 04:09:06;;;;;;;7.40;6.80;;;6.10;99.90;;;;;;10263490;28;20223;-82
2020/12/25 04:14:08;;;;;;;6.60;6.10;;;6.10;99.90;;;;;;10300511;28;20196;-85
2020/12/25 04:19:10;;;;;;;6.73;6.23;;;6.20;99.90;;;;;;10268364;28;20716;-85
2020/12/25 04:24:13;;;;;;;7.80;7.20;;;6.20;99.90;;;;;;10287219;28;20229;-83
2020/12/25 04:29:14;;;;;;;6.80;6.30;;;6.20;99.90;;;;;;10262539;28;20278;-81
2020/12/25 04:34:16;;;;;;;6.80;6.30;;;6.20;99.90;;;;;;10293031;28;20192;-81
2020/12/25 04:39:19;;;;;;;6.83;6.33;;;6.20;99.90;;;;;;10277449;28;20589;-81
2020/12/25 04:44:20;;;;;;;6.70;6.20;;;6.20;99.90;;;;;;10292898;28;20230;-81
2020/12/25 04:49:22;;;;;;;6.40;5.90;;;6.20;99.90;;;;;;10261645;28;20307;-82
2020/12/25 04:54:25;;;;;;;6.00;5.50;;;6.20;99.90;;;;;;10259177;28;20203;-81
2020/12/25 04:59:27;;;;;;;6.30;5.90;;;6.20;99.90;;;;;;10293397;28;20278;-81
2020/12/25 05:04:29;;;;;;;5.63;5.33;;;6.20;99.90;;;;;;10276027;28;20196;-83
2020/12/25 05:09:32;;;;;;;6.67;6.27;;;6.20;99.90;;;;;;10276253;28;20220;-82
2020/12/25 05:14:33;;;;;;;5.97;5.57;;;6.20;99.90;;;;;;10291901;28;20255;-83
2020/12/25 05:19:36;;;;;;;6.77;6.27;;;6.20;99.90;;;;;;10260188;28;20208;-84
2020/12/25 05:24:39;;;;;;;6.20;5.80;;;6.20;99.90;;;;;;10295548;28;20198;-81
2020/12/25 05:29:42;;;;;;;6.13;5.73;;;6.10;99.90;;;;;;10293609;28;20298;-82
2020/12/25 05:34:44;;;;;;;6.17;5.77;;;6.00;99.90;;;;;;10274910;28;20278;-82
2020/12/25 05:39:48;;;;;;;7.23;6.80;;;6.00;99.90;;;;;;10259421;28;20607;-80
2020/12/25 05:44:50;;;;;;;7.13;6.63;;;6.00;99.90;;;;;;10273781;28;20215;-81
2020/12/25 05:49:53;;;;;;;6.77;6.27;;;6.00;99.90;;;;;;10274891;28;20188;-81
2020/12/25 05:54:58;;;;;;;6.77;6.37;;;6.00;99.90;;;;;;10292673;28;20271;-82
2020/12/25 06:00:05;;;;;;;7.20;6.67;;;6.00;99.90;;;;;;10274234;28;20212;-82
2020/12/25 06:05:09;;;;;;;8.00;7.40;;;5.90;99.90;;;;;;10291998;28;20294;-81
2020/12/25 06:10:16;;;;;;;7.00;6.57;;;5.90;99.90;;;;;;10275912;28;20263;-83
2020/12/25 06:15:23;;;;;;;7.50;7.00;;;5.80;99.90;;;;;;10292651;28;20303;-83
2020/12/25 06:20:26;;;;;;;7.07;6.57;;;5.80;99.90;;;;;;10275345;28;20706;-83
2020/12/25 06:25:29;;;;;;;8.87;8.20;;;5.80;99.90;;;;;;10292468;28;20282;-83
2020/12/25 06:30:32;;;;;;;8.00;7.30;;;5.90;99.90;;;;;;10277963;28;20188;-83
2020/12/25 06:35:41;;;;;;;9.17;8.47;;;5.90;99.90;;;;;;10281451;28;20239;-83
2020/12/25 06:40:44;;;;;;;7.73;7.13;;;5.90;99.90;;;;;;10282268;28;20206;-82
2020/12/25 06:45:51;;;;;;;8.47;7.77;;;5.80;99.90;;;;;;10280848;28;20251;-81
2020/12/25 06:50:54;;;;;;;7.30;6.80;;;5.80;99.90;;;;;;10280656;28;20191;-81
2020/12/25 06:56:11;;;;;;;8.50;7.83;;;5.70;99.90;;;;;;10280359;28;20583;-81
2020/12/25 07:01:15;;;;;;;7.33;6.73;;;5.80;99.90;;;;;;10264838;28;20219;-82
2020/12/25 07:06:16;;;;;;;6.87;6.37;;;5.80;99.90;;;;;;10264558;28;20211;-81
2020/12/25 07:11:20;;;;;;;7.37;6.80;;;5.60;99.90;;;;;;10279685;28;20194;-80
2020/12/25 07:16:22;;;;;;;6.77;6.27;;;5.50;99.90;;;;;;10278802;28;20251;-81
2020/12/25 07:21:24;;;;;;;5.90;5.50;;;5.50;99.90;;;;;;10266121;28;20231;-82
2020/12/25 07:26:28;;;;;;;5.57;5.17;;;5.50;99.90;;;;;;10282231;28;20584;-83
2020/12/25 07:31:29;;;;;;;5.47;5.07;;;5.50;99.90;;;;;;10266766;28;20195;-83
2020/12/25 07:36:31;;;;;;;5.20;4.80;;;5.40;99.90;;;;;;10265234;28;20224;-82
2020/12/25 07:41:36;;;;;;;5.50;5.10;;;5.30;99.90;;;;;;10279652;28;20227;-81
2020/12/25 07:46:38;;;;;;;6.20;5.60;;;5.30;99.90;;;;;;10264175;28;20291;-83
2020/12/25 07:51:40;;;;;;;5.50;5.10;;;5.30;99.90;;;;;;10279703;28;20192;-81
2020/12/25 07:56:43;;;;;;;6.60;6.10;;;5.30;99.90;;;;;;10263551;28;20720;-83
2020/12/25 08:01:45;;;;;;;5.37;5.03;;;5.30;99.90;;;;;;10279635;28;20295;-82
2020/12/25 08:06:47;;;;;;;5.33;4.93;;;5.40;99.90;;;;;;10296445;28;20578;-83
2020/12/25 08:11:51;;;;;;;5.93;5.50;;;5.40;99.90;;;;;;10279756;28;20203;-83
2020/12/25 08:16:53;;;;;;;5.63;5.23;;;5.50;99.90;;;;;;10279017;28;20658;-82
2020/12/25 08:22:03;;;;;;;7.10;6.50;;;5.50;99.90;;;;;;10263363;28;20232;-81
2020/12/25 08:27:06;;;;;;;7.50;6.83;;;5.50;99.90;;;;;;10278143;28;20235;-83
2020/12/25 08:32:09;;;;;;;7.53;6.83;;;5.50;99.90;;;;;;10265015;28;20242;-81
2020/12/25 08:37:14;;;;;;;8.37;7.57;;;5.50;99.90;;;;;;10280748;28;20220;-84
2020/12/25 08:42:19;;;;;;;8.40;7.70;;;5.50;99.90;;;;;;10279266;28;20216;-83
2020/12/25 08:47:23;;;;;;;9.50;8.63;;;5.50;99.90;;;;;;10261972;28;20234;-84
2020/12/25 08:52:25;;;;;;;10.87;9.77;;;5.60;99.90;;;;;;10295665;28;20188;-81
2020/12/25 08:57:29;;;;;;;10.60;9.60;;;5.60;99.90;;;;;;10277150;28;20224;-83
2020/12/25 09:02:31;;;;;;;12.20;11.00;;;5.60;99.90;;;;;;10263526;28;20310;-83
2020/12/25 09:07:32;;;;;;;11.63;10.63;;;5.60;99.90;;;;;;10267104;28;20692;-82
2020/12/25 09:12:35;;;;;;;12.43;11.27;;;5.70;99.90;;;;;;10277913;28;20216;-82
2020/12/25 09:17:36;;;;;;;11.67;10.60;;;5.70;99.90;;;;;;10277201;28;20734;-83
2020/12/25 09:22:38;;;;;;;11.30;10.30;;;5.70;99.90;;;;;;10261426;28;20278;-83
2020/12/25 09:27:40;;;;;;;11.30;10.17;;;5.80;99.90;;;;;;10260665;28;20320;-83
2020/12/25 09:32:42;;;;;;;12.80;11.07;;;5.80;99.90;;;;;;10260986;28;20196;-82
2020/12/25 09:37:44;;;;;;;12.43;11.30;;;5.90;99.90;;;;;;10296757;28;20299;-83
2020/12/25 09:42:46;;;;;;;12.37;11.23;;;6.00;99.90;;;;;;10276472;28;20290;-81
2020/12/25 09:47:48;;;;;;;12.10;11.00;;;6.10;99.90;;;;;;10292703;28;20677;-81
2020/12/25 09:52:49;;;;;;;11.30;10.30;;;6.10;99.90;;;;;;10258757;28;20286;-80
2020/12/25 09:57:52;;;;;;;11.40;10.40;;;6.20;99.90;;;;;;10258328;28;20219;-81
2020/12/25 10:02:53;;;;;;;11.27;10.27;;;6.30;99.90;;;;;;10274095;28;20302;-84
2020/12/25 10:07:55;;;;;;;10.30;9.40;;;6.40;99.90;;;;;;10285833;28;20219;-84
2020/12/25 10:12:57;;;;;;;10.17;9.27;;;6.40;99.90;;;;;;10305346;28;20302;-82
2020/12/25 10:17:59;;;;;;;9.30;8.40;;;6.50;99.90;;;;;;10287087;28;20739;-84
2020/12/25 10:23:01;;;;;;;9.90;8.00;;;6.50;99.90;;;;;;10271845;28;20226;-82
2020/12/25 10:28:03;;;;;;;8.40;7.60;;;6.50;99.90;;;;;;10294962;28;20734;-82
2020/12/25 10:33:05;;;;;;;8.37;7.50;;;6.40;99.90;;;;;;10298027;28;20672;-84
2020/12/25 10:38:06;;;;;;;7.77;7.17;;;6.40;99.90;;;;;;10317374;28;20247;-84
2020/12/25 10:43:09;;;;;;;7.90;7.27;;;6.30;99.90;;;;;;10285635;28;20229;-83
2020/12/25 10:48:11;;;;;;;8.00;7.30;;;6.30;99.90;;;;;;10284947;28;20220;-83
2020/12/25 10:53:12;;;;;;;7.67;7.07;;;6.20;99.90;;;;;;10284054;28;20200;-83
2020/12/25 10:58:15;;;;;;;11.30;7.67;;;6.20;99.90;;;;;;10301902;28;20231;-84
2020/12/25 11:03:17;;;;;;;9.00;7.27;;;6.30;99.90;;;;;;10311856;28;20220;-82
2020/12/25 11:08:18;;;;;;;7.40;6.80;;;6.30;99.90;;;;;;10294444;28;20254;-83
2020/12/25 11:13:21;;;;;;;8.10;7.30;;;6.30;99.90;;;;;;10288698;28;20649;-82
2020/12/25 11:18:22;;;;;;;7.80;7.10;;;6.30;99.90;;;;;;10307206;28;20239;-82
2020/12/25 11:23:24;;;;;;;7.10;6.50;;;6.30;99.90;;;;;;10305011;28;20307;-83
2020/12/25 11:28:26;;;;;;;7.20;6.60;;;6.30;99.90;;;;;;10277234;28;20248;-83
2020/12/25 11:33:28;;;;;;;7.47;6.77;;;6.30;99.90;;;;;;10303626;28;20696;-82
2020/12/25 11:38:30;;;;;;;7.37;6.67;;;6.30;99.90;;;;;;10287397;28;20230;-82
2020/12/25 11:43:32;;;;;;;6.33;5.83;;;6.30;99.90;;;;;;10307097;28;20625;-83
2020/12/25 11:48:34;;;;;;;6.53;5.90;;;6.30;99.90;;;;;;10269400;28;20243;-82
2020/12/25 11:53:37;;;;;;;8.80;6.50;;;6.30;99.90;;;;;;10284159;28;20284;-83
2020/12/25 11:58:39;;;;;;;6.60;6.10;;;6.40;99.90;;;;;;10316811;28;20220;-83
2020/12/25 12:03:41;;;;;;;6.20;5.77;;;6.40;99.90;;;;;;10328240;28;20227;-84
2020/12/25 12:08:43;;;;;;;6.40;5.90;;;6.50;99.90;;;;;;10330097;28;20212;-84
2020/12/25 12:13:45;;;;;;;5.93;5.33;;;6.50;99.90;;;;;;10326521;28;20195;-82
2020/12/25 12:18:48;;;;;;;6.33;5.37;;;6.50;99.90;;;;;;10326087;28;20712;-83
2020/12/25 12:23:49;;;;;;;4.93;4.50;;;6.50;99.90;;;;;;10326953;28;20238;-83
2020/12/25 12:28:52;;;;;;;6.00;5.50;;;6.50;99.90;;;;;;10327302;28;20246;-84
2020/12/25 12:33:53;;;;;;;5.70;5.20;;;6.40;99.90;;;;;;10346588;28;20243;-83
2020/12/25 12:38:55;;;;;;;6.20;5.60;;;6.50;99.90;;;;;;10326722;28;20241;-82
2020/12/25 12:43:57;;;;;;;5.40;4.93;;;6.50;99.90;;;;;;10316757;28;20227;-83
2020/12/25 12:48:59;;;;;;;5.80;5.20;;;6.50;99.90;;;;;;10310725;28;20220;-83
2020/12/25 12:54:00;;;;;;;6.30;5.70;;;6.50;99.90;;;;;;10282675;28;20223;-82
2020/12/25 12:59:03;;;;;;;5.20;4.80;;;6.50;99.90;;;;;;10303688;28;20715;-82
2020/12/25 13:04:05;;;;;;;5.30;4.90;;;6.50;99.90;;;;;;10267739;28;20543;-83
2020/12/25 13:09:06;;;;;;;5.57;5.03;;;6.40;99.90;;;;;;10266041;28;20305;-82
2020/12/25 13:14:09;;;;;;;7.03;4.60;;;6.40;99.90;;;;;;10266908;28;20202;-84
2020/12/25 13:19:11;;;;;;;5.27;4.77;;;6.40;99.90;;;;;;10269086;28;20246;-83
2020/12/25 13:24:12;;;;;;;4.80;4.40;;;6.40;99.90;;;;;;10282861;28;20223;-82
2020/12/25 13:29:15;;;;;;;4.50;4.10;;;6.30;99.90;;;;;;10283274;28;20286;-82
2020/12/25 13:34:16;;;;;;;5.20;4.70;;;6.30;99.90;;;;;;10282172;28;20563;-84
2020/12/25 13:39:18;;;;;;;5.50;5.00;;;6.20;99.90;;;;;;10281215;28;20245;-83
2020/12/25 13:44:21;;;;;;;3.93;3.60;;;6.20;99.90;;;;;;10266693;28;20697;-83
2020/12/25 13:49:22;;;;;;;4.20;3.90;;;6.30;99.90;;;;;;10272557;28;20220;-83
2020/12/25 13:54:24;;;;;;;3.70;3.43;;;6.30;99.90;;;;;;10264669;28;20204;-83
2020/12/25 13:59:27;;;;;;;4.60;4.20;;;6.30;99.90;;;;;;10282890;28;20280;-81
2020/12/25 14:04:28;;;;;;;4.70;4.40;;;6.30;99.90;;;;;;10283828;28;20230;-82
2020/12/25 14:09:30;;;;;;;3.63;3.43;;;6.20;99.90;;;;;;10288942;28;20212;-82
2020/12/25 14:14:33;;;;;;;3.80;3.50;;;6.20;99.90;;;;;;10283411;28;20188;-82
2020/12/25 14:19:34;;;;;;;4.23;3.83;;;6.20;99.90;;;;;;10284598;28;20208;-82
2020/12/25 14:24:36;;;;;;;4.27;3.87;;;6.10;99.90;;;;;;10283180;28;20223;-82
2020/12/25 14:29:38;;;;;;;4.00;3.70;;;6.00;99.90;;;;;;10300986;28;20203;-82
2020/12/25 14:34:40;;;;;;;4.47;4.07;;;6.00;99.90;;;;;;10284802;28;20204;-81
2020/12/25 14:39:41;;;;;;;3.67;3.37;;;6.00;99.90;;;;;;10284283;28;20192;-83
2020/12/25 14:44:45;;;;;;;3.87;3.30;;;6.10;99.90;;;;;;10265495;28;20336;-82
2020/12/25 14:49:47;;;;;;;3.30;3.10;;;6.10;99.90;;;;;;10283060;28;20208;-82
2020/12/25 14:54:49;;;;;;;4.83;3.83;;;6.10;99.90;;;;;;10292913;28;20291;-82
2020/12/25 14:59:51;;;;;;;3.60;3.30;;;6.00;99.90;;;;;;10288450;28;20581;-82
2020/12/25 15:04:53;;;;;;;3.80;3.50;;;6.00;99.90;;;;;;10281402;28;20251;-82
2020/12/25 15:09:56;;;;;;;3.50;3.30;;;6.00;99.90;;;;;;10307198;28;20199;-82
2020/12/25 15:14:58;;;;;;;3.47;3.17;;;6.10;99.90;;;;;;10287852;28;20223;-81
2020/12/25 15:20:00;;;;;;;3.23;3.03;;;6.10;99.90;;;;;;10289399;28;20699;-83
2020/12/25 15:25:01;;;;;;;3.60;3.30;;;6.10;99.90;;;;;;10274477;28;20255;-81
2020/12/25 15:30:04;;;;;;;3.97;3.67;;;6.00;99.90;;;;;;10288293;28;20576;-81
2020/12/25 15:35:05;;;;;;;3.47;3.27;;;6.00;99.90;;;;;;10324341;28;20211;-82
2020/12/25 15:40:07;;;;;;;3.67;3.27;;;6.10;99.90;;;;;;10331071;28;20222;-82
2020/12/25 15:45:10;;;;;;;3.57;3.33;;;6.10;99.90;;;;;;10344672;28;20214;-82
2020/12/25 15:50:11;;;;;;;4.60;4.20;;;6.10;99.90;;;;;;10362076;28;20270;-83
2020/12/25 15:55:13;;;;;;;4.07;3.77;;;6.10;99.90;;;;;;10332065;28;20238;-81
2020/12/25 16:00:15;;;;;;;4.27;3.87;;;6.10;99.90;;;;;;10326073;28;20242;-82
2020/12/25 16:05:18;;;;;;;3.83;3.53;;;6.20;99.90;;;;;;10324778;28;20250;-80
2020/12/25 16:10:22;;;;;;;3.80;3.60;;;6.10;99.90;;;;;;10327985;28;20282;-82
2020/12/25 16:15:24;;;;;;;3.77;3.50;;;6.10;99.90;;;;;;10323216;28;20215;-81
2020/12/25 16:20:26;;;;;;;4.60;4.20;;;6.10;99.90;;;;;;10307420;28;20237;-81
2020/12/25 16:25:27;;;;;;;4.17;3.87;;;6.10;99.90;;;;;;10353067;23;20540;-81
2020/12/25 16:30:30;;;;;;;4.10;3.70;;;6.10;99.90;;;;;;10277385;28;20192;-82
2020/12/25 16:35:32;;;;;;;3.60;3.40;;;6.00;99.90;;;;;;10277041;28;20568;-81
2020/12/25 16:40:33;;;;;;;4.20;3.53;;;6.00;99.90;;;;;;10261082;28;20196;-82
2020/12/25 16:45:36;;;;;;;3.73;3.53;;;6.00;99.90;;;;;;10276321;28;20246;-82
2020/12/25 16:50:37;;;;;;;4.00;3.67;;;6.00;99.90;;;;;;10261387;28;20258;-82
2020/12/25 16:55:39;;;;;;;3.20;3.00;;;6.00;99.90;;;;;;10260799;28;20230;-82
2020/12/25 17:00:42;;;;;;;3.43;3.23;;;6.00;99.90;;;;;;10260427;28;20196;-82
2020/12/25 17:05:43;;;;;;;3.60;3.30;;;6.10;99.90;;;;;;10237573;29;20265;-82
2020/12/25 17:10:45;;;;;;;4.03;3.73;;;6.10;99.90;;;;;;10222171;29;20349;-82
2020/12/25 17:15:47;;;;;;;3.37;3.17;;;6.10;99.90;;;;;;10220572;28;20221;-82
2020/12/25 17:20:49;;;;;;;4.07;3.57;;;6.10;99.90;;;;;;10221586;29;20255;-82
2020/12/25 17:25:50;;;;;;;3.80;3.50;;;6.00;99.90;;;;;;10221241;29;20645;-82
2020/12/25 17:30:53;;;;;;;3.33;3.03;;;5.90;99.90;;;;;;10237788;28;20184;-82
2020/12/25 17:35:54;;;;;;;4.03;3.73;;;5.80;99.90;;;;;;10262402;28;20250;-82
2020/12/25 17:40:57;;;;;;;4.27;3.97;;;5.80;99.90;;;;;;10278377;28;20767;-82
2020/12/25 17:45:59;;;;;;;4.20;3.90;;;5.70;99.90;;;;;;10263372;28;20246;-82
2020/12/25 17:51:05;;;;;;;4.40;4.00;;;5.60;99.90;;;;;;10261264;28;20283;-82
2020/12/25 17:56:17;;;;;;;4.60;4.27;;;5.50;99.90;;;;;;10261113;28;20220;-82
2020/12/25 18:01:21;;;;;;;4.20;3.90;;;5.50;99.90;;;;;;10262156;28;20212;-82
2020/12/25 18:06:22;;;;;;;4.20;3.90;;;5.50;99.90;;;;;;10274126;28;20239;-82
2020/12/25 18:11:25;;;;;;;4.60;4.20;;;5.50;99.90;;;;;;10275476;28;20218;-82
2020/12/25 18:16:28;;;;;;;4.90;4.40;;;5.40;99.90;;;;;;10273683;28;20634;-82
2020/12/25 18:21:33;;;;;;;4.80;4.23;;;5.20;99.90;;;;;;10274332;28;20219;-82
2020/12/25 18:26:35;;;;;;;4.83;4.47;;;5.10;99.90;;;;;;10292639;28;20250;-82
2020/12/25 18:31:37;;;;;;;11.70;10.60;;;5.00;99.90;;;;;;10281094;28;20188;-81
2020/12/25 18:36:39;;;;;;;6.70;6.00;;;4.80;99.90;;;;;;10282140;28;20212;-82
2020/12/25 18:41:41;;;;;;;5.90;5.40;;;4.70;99.90;;;;;;10264852;28;20212;-82
2020/12/25 18:46:43;;;;;;;6.40;5.90;;;4.60;99.90;;;;;;10264646;28;20722;-82
2020/12/25 18:51:45;;;;;;;12.33;10.60;;;4.40;99.90;;;;;;10280906;28;20215;-82
2020/12/25 18:56:47;;;;;;;9.80;8.90;;;4.30;99.90;;;;;;10263721;28;20267;-81
2020/12/25 19:01:53;;;;;;;8.10;7.30;;;4.20;99.90;;;;;;10280419;28;20200;-82
2020/12/25 19:06:55;;;;;;;8.53;7.73;;;4.10;99.90;;;;;;10281102;28;20683;-82
2020/12/25 19:12:00;;;;;;;8.23;7.40;;;4.00;99.90;;;;;;10264762;28;20279;-82
2020/12/25 19:17:03;;;;;;;7.30;6.60;;;4.00;99.90;;;;;;10279809;28;20294;-82
2020/12/25 19:22:05;;;;;;;8.83;8.03;;;3.90;99.90;;;;;;10280598;28;20223;-82
2020/12/25 19:27:07;;;;;;;11.33;10.33;;;3.80;99.90;;;;;;10280446;28;20234;-82
2020/12/25 19:32:09;;;;;;;8.27;7.57;;;3.70;99.90;;;;;;10253523;28;20255;-82
2020/12/25 19:37:11;;;;;;;8.30;7.60;;;3.70;99.90;;;;;;10241348;28;20295;-82
2020/12/25 19:42:12;;;;;;;10.13;9.13;;;3.70;99.90;;;;;;10258571;29;20207;-82
2020/12/25 19:47:15;;;;;;;10.83;9.77;;;3.70;99.90;;;;;;10241977;29;20232;-82
2020/12/25 19:52:17;;;;;;;10.83;9.10;;;3.70;99.90;;;;;;10224321;29;20224;-82
2020/12/25 19:57:19;;;;;;;8.00;7.30;;;3.80;99.90;;;;;;10226017;29;20216;-83
2020/12/25 20:02:22;;;;;;;8.17;7.40;;;3.80;99.90;;;;;;10243201;29;20197;-81
2020/12/25 20:07:26;;;;;;;8.80;8.00;;;3.90;99.90;;;;;;10252283;29;20720;-82
2020/12/25 20:12:28;;;;;;;8.70;7.10;;;3.90;99.90;;;;;;10225882;29;20229;-82
2020/12/25 20:17:37;;;;;;;8.47;7.67;;;3.90;99.90;;;;;;10259998;29;20280;-81
2020/12/25 20:22:40;;;;;;;8.40;7.63;;;4.00;99.90;;;;;;10240574;29;20199;-82
2020/12/25 20:27:42;;;;;;;7.83;7.13;;;4.00;99.90;;;;;;10221242;29;20243;-82
2020/12/25 20:32:45;;;;;;;6.70;6.10;;;4.00;99.90;;;;;;10252188;28;20711;-82
2020/12/25 20:37:49;;;;;;;7.60;6.90;;;4.00;99.90;;;;;;10261264;28;20212;-82
2020/12/25 20:42:51;;;;;;;6.97;6.40;;;3.90;99.90;;;;;;10260319;28;20200;-82
2020/12/25 20:47:53;;;;;;;6.67;6.17;;;3.90;99.90;;;;;;10260508;28;20276;-82
2020/12/25 20:52:55;;;;;;;6.40;5.90;;;3.80;99.90;;;;;;10275417;28;20263;-81
2020/12/25 20:57:56;;;;;;;7.20;6.50;;;3.80;99.90;;;;;;10275817;28;20235;-82
2020/12/25 21:02:59;;;;;;;8.17;7.40;;;3.70;99.90;;;;;;10275409;28;20208;-82
2020/12/25 21:08:00;;;;;;;11.10;8.63;;;3.60;99.90;;;;;;10235574;29;20696;-82
2020/12/25 21:13:02;;;;;;;9.60;8.63;;;3.60;99.90;;;;;;10252452;29;20251;-81
2020/12/25 21:18:05;;;;;;;9.10;8.33;;;3.50;99.90;;;;;;10234892;29;20611;-82
2020/12/25 21:23:06;;;;;;;9.53;8.60;;;3.50;99.90;;;;;;10234981;29;20196;-82
2020/12/25 21:28:08;;;;;;;6.80;6.20;;;3.40;99.90;;;;;;10229950;28;20326;-82
2020/12/25 21:33:10;;;;;;;6.53;5.93;;;3.40;99.90;;;;;;10274153;28;20218;-81
2020/12/25 21:38:12;;;;;;;6.30;5.70;;;3.50;99.90;;;;;;10258135;28;20228;-82
2020/12/25 21:43:14;;;;;;;8.20;7.40;;;3.50;99.90;;;;;;10258579;28;20215;-81
2020/12/25 21:48:17;;;;;;;7.20;6.50;;;3.40;99.90;;;;;;10274953;28;20295;-82
2020/12/25 21:53:18;;;;;;;8.27;7.47;;;3.40;99.90;;;;;;10259877;28;20277;-82
2020/12/25 21:58:20;;;;;;;7.97;7.17;;;3.40;99.90;;;;;;10275485;28;20215;-82
2020/12/25 22:03:22;;;;;;;7.63;6.93;;;3.50;99.90;;;;;;10258238;28;20250;-82
2020/12/25 22:08:24;;;;;;;6.50;5.93;;;3.60;99.90;;;;;;10259163;28;20219;-81
2020/12/25 22:13:26;;;;;;;6.90;6.30;;;3.60;99.90;;;;;;10259318;28;20227;-82
2020/12/25 22:18:28;;;;;;;6.70;6.10;;;3.60;99.90;;;;;;10259945;28;20235;-81
2020/12/25 22:23:30;;;;;;;6.57;6.07;;;3.50;99.90;;;;;;10274742;28;20192;-82
2020/12/25 22:28:31;;;;;;;6.57;5.97;;;3.50;99.90;;;;;;10274419;28;20311;-81
2020/12/25 22:33:34;;;;;;;6.70;6.10;;;3.40;99.90;;;;;;10257594;28;20259;-81
2020/12/25 22:38:35;;;;;;;7.07;6.33;;;3.50;99.90;;;;;;10275445;28;20219;-81
2020/12/25 22:43:37;;;;;;;5.80;5.30;;;3.50;99.90;;;;;;10274072;28;20287;-81
2020/12/25 22:48:40;;;;;;;6.63;6.03;;;3.50;99.90;;;;;;10273435;28;20616;-81
2020/12/25 22:53:41;;;;;;;6.07;5.57;;;3.50;99.90;;;;;;10258357;28;20228;-81
2020/12/25 22:58:43;;;;;;;7.17;5.70;;;3.50;99.90;;;;;;10257984;28;20323;-81
2020/12/25 23:03:46;;;;;;;6.37;5.77;;;3.60;99.90;;;;;;10273708;28;20238;-81
2020/12/25 23:08:48;;;;;;;7.40;6.80;;;3.60;99.90;;;;;;10271825;28;20619;-81
2020/12/25 23:13:49;;;;;;;6.70;6.03;;;3.70;99.90;;;;;;10259364;28;20716;-81
2020/12/25 23:18:52;;;;;;;7.17;6.57;;;3.70;99.90;;;;;;10279422;28;20219;-81
2020/12/25 23:23:53;;;;;;;8.20;7.03;;;3.80;99.90;;;;;;10279018;28;20658;-81
2020/12/25 23:28:55;;;;;;;7.40;6.70;;;3.80;99.90;;;;;;10279338;28;20243;-81
2020/12/25 23:33:58;;;;;;;10.00;7.60;;;3.90;99.90;;;;;;10265305;28;20223;-81
2020/12/25 23:38:59;;;;;;;8.07;6.47;;;3.90;99.90;;;;;;10270529;28;20688;-81
2020/12/25 23:44:01;;;;;;;8.67;7.87;;;4.00;99.90;;;;;;10274733;28;20196;-81
2020/12/25 23:49:05;;;;;;;8.80;7.90;;;4.10;99.90;;;;;;10278757;28;20267;-81
2020/12/25 23:54:06;;;;;;;9.60;8.57;;;4.20;99.90;;;;;;10261402;28;20219;-81
2020/12/25 23:59:08;;;;;;;12.60;9.80;;;4.20;99.90;;;;;;10279427;28;20219;-81
